Time;durP1;ratioP1;P1;durP2;ratioP2;P2;SDS_P1;SDS_P2;PMS_P1;PMS_P2;Temp;Humidity;BMP_temperature;BMP_pressure;BME280_temperature;BME280_humidity;BME280_pressure;Samples;Min_cycle;Max_cycle;Signal;HPM_P1;HPM_P2
2022/09/09 00:01:51;;;;;;;;;;;22.10;61.60;;;;;;5069096;28;20043;-75
2022/09/09 00:04:27;;;;;;;;;;;22.10;61.70;;;;;;5052234;28;19943;-74
2022/09/09 00:06:52;;;;;;;;;;;22.10;61.90;;;;;;5073090;28;19931;-75
2022/09/09 00:09:19;;;;;;;;;;;22.00;61.80;;;;;;5064541;28;19913;-75
2022/09/09 00:12:11;;;;;;;;;;;22.10;61.80;;;;;;5054158;28;19947;-74
2022/09/09 00:14:36;;;;;;;;;;;22.10;61.80;;;;;;5064809;28;20297;-74
2022/09/09 00:17:03;;;;;;;;;;;22.10;61.80;;;;;;5070689;28;19923;-74
2022/09/09 00:19:33;;;;;;;;;;;22.00;62.00;;;;;;5040583;28;19914;-74
2022/09/09 00:22:02;;;;;;;;;;;22.10;61.90;;;;;;5048754;28;19970;-75
2022/09/09 00:24:29;;;;;;;;;;;22.10;62.00;;;;;;5033026;28;20044;-75
2022/09/09 00:27:05;;;;;;;;;;;22.10;62.00;;;;;;5052141;28;20352;-75
2022/09/09 00:29:32;;;;;;;;;;;22.10;61.90;;;;;;5049851;28;19913;-74
2022/09/09 00:32:03;;;;;;;;;;;22.00;62.00;;;;;;5071232;28;20003;-74
2022/09/09 00:34:28;;;;;;;;;;;22.00;62.20;;;;;;5037521;28;19913;-75
2022/09/09 00:36:54;;;;;;;;;;;22.00;62.10;;;;;;5036865;28;19923;-74
2022/09/09 00:39:36;;;;;;;;;;;22.00;62.20;;;;;;5069770;28;19999;-75
2022/09/09 00:42:08;;;;;;;;;;;22.00;62.30;;;;;;5067423;28;19920;-75
2022/09/09 00:44:35;;;;;;;;;;;22.00;62.30;;;;;;5051538;28;19944;-75
2022/09/09 00:47:19;;;;;;;;;;;22.00;62.20;;;;;;5054768;28;20384;-74
2022/09/09 00:49:48;;;;;;;;;;;22.00;62.20;;;;;;5064398;28;19913;-74
2022/09/09 00:52:33;;;;;;;;;;;22.00;62.20;;;;;;5040693;28;19983;-74
2022/09/09 00:55:11;;;;;;;;;;;22.00;62.30;;;;;;5067354;28;19958;-74
2022/09/09 00:57:37;;;;;;;;;;;22.00;62.30;;;;;;5045153;28;19920;-75
2022/09/09 01:00:20;;;;;;;;;;;21.90;62.20;;;;;;5056266;28;19935;-73
2022/09/09 01:02:49;;;;;;;;;;;22.00;62.20;;;;;;5072782;28;19924;-74
2022/09/09 01:05:24;;;;;;;;;;;22.00;62.30;;;;;;5077513;28;19947;-75
2022/09/09 01:07:49;;;;;;;;;;;22.00;62.30;;;;;;5040986;28;20312;-75
2022/09/09 01:10:35;;;;;;;;;;;21.90;62.20;;;;;;5056048;28;19917;-75
2022/09/09 01:13:01;;;;;;;;;;;22.00;62.20;;;;;;5054746;28;19946;-75
2022/09/09 01:15:27;;;;;;;;;;;21.90;62.20;;;;;;5056096;28;20423;-74
2022/09/09 01:18:22;;;;;;;;;;;22.00;62.20;;;;;;5058575;28;19913;-74
2022/09/09 01:20:53;;;;;;;;;;;21.90;62.00;;;;;;5058365;28;19916;-74
2022/09/09 01:23:22;;;;;;;;;;;21.90;61.90;;;;;;5075444;28;19912;-75
2022/09/09 01:26:04;;;;;;;;;;;21.90;62.00;;;;;;5074567;28;19956;-73
2022/09/09 01:28:29;;;;;;;;;;;21.90;62.10;;;;;;5055569;28;19951;-75
2022/09/09 01:30:55;;;;;;;;;;;21.80;62.00;;;;;;5057967;28;19927;-74
2022/09/09 01:33:20;;;;;;;;;;;21.80;62.10;;;;;;5040376;28;19938;-74
2022/09/09 01:35:54;;;;;;;;;;;21.90;62.90;;;;;;5076196;28;19921;-74
2022/09/09 01:38:19;;;;;;;;;;;21.90;62.10;;;;;;5064150;28;19935;-73
2022/09/09 01:40:45;;;;;;;;;;;21.90;62.00;;;;;;5051741;28;20372;-74
2022/09/09 01:43:10;;;;;;;;;;;21.90;61.90;;;;;;5058229;28;19952;-75
2022/09/09 01:45:36;;;;;;;;;;;21.90;61.70;;;;;;5076745;28;19919;-74
2022/09/09 01:48:02;;;;;;;;;;;21.90;61.70;;;;;;5057261;28;20415;-75
2022/09/09 01:50:28;;;;;;;;;;;21.90;61.90;;;;;;5074969;28;19908;-75
2022/09/09 01:52:59;;;;;;;;;;;21.90;61.80;;;;;;5074655;28;19934;-75
2022/09/09 01:55:29;;;;;;;;;;;21.90;61.90;;;;;;5057085;28;19916;-74
2022/09/09 01:57:58;;;;;;;;;;;21.90;61.80;;;;;;5025893;28;20372;-75
2022/09/09 02:00:24;;;;;;;;;;;21.90;61.80;;;;;;5057210;28;19982;-74
2022/09/09 02:02:56;;;;;;;;;;;21.90;61.60;;;;;;5056504;28;19920;-74
2022/09/09 02:05:24;;;;;;;;;;;22.00;61.60;;;;;;5069275;28;20356;-74
2022/09/09 02:07:51;;;;;;;;;;;22.00;61.50;;;;;;5069761;28;19912;-74
2022/09/09 02:10:29;;;;;;;;;;;21.90;61.50;;;;;;5039918;28;19923;-75
2022/09/09 02:12:56;;;;;;;;;;;21.90;61.50;;;;;;5050974;28;19913;-75
2022/09/09 02:15:35;;;;;;;;;;;21.90;61.50;;;;;;5053031;28;19917;-74
2022/09/09 02:18:01;;;;;;;;;;;21.90;61.50;;;;;;5054881;28;20003;-74
2022/09/09 02:20:27;;;;;;;;;;;21.90;61.60;;;;;;5072322;28;19924;-74
2022/09/09 02:22:52;;;;;;;;;;;21.90;61.50;;;;;;5051795;28;19948;-74
2022/09/09 02:25:19;;;;;;;;;;;21.90;61.50;;;;;;5069592;28;20340;-72
2022/09/09 02:27:45;;;;;;;;;;;21.90;61.40;;;;;;5070237;28;19916;-75
2022/09/09 02:30:11;;;;;;;;;;;21.90;61.40;;;;;;5074767;28;19993;-73
2022/09/09 02:32:36;;;;;;;;;;;21.90;61.50;;;;;;5039664;28;19939;-74
2022/09/09 02:35:03;;;;;;;;;;;21.90;61.50;;;;;;5072876;28;19912;-75
2022/09/09 02:37:30;;;;;;;;;;;21.80;61.40;;;;;;5034958;28;19917;-75
2022/09/09 02:39:55;;;;;;;;;;;21.80;61.40;;;;;;5055772;28;19921;-74
2022/09/09 02:42:21;;;;;;;;;;;21.80;61.40;;;;;;5055951;28;19947;-75
2022/09/09 02:44:46;;;;;;;;;;;21.80;61.50;;;;;;5040998;28;20369;-75
2022/09/09 02:47:24;;;;;;;;;;;21.80;61.60;;;;;;5044953;28;19954;-75
2022/09/09 02:50:05;;;;;;;;;;;21.80;61.60;;;;;;5075424;28;19966;-74
2022/09/09 02:52:50;;;;;;;;;;;21.80;61.40;;;;;;5056262;28;19917;-74
2022/09/09 02:55:21;;;;;;;;;;;21.80;61.20;;;;;;5072032;28;19912;-75
2022/09/09 02:57:47;;;;;;;;;;;21.80;61.40;;;;;;5053081;28;19912;-75
2022/09/09 03:00:13;;;;;;;;;;;21.80;61.20;;;;;;5054237;28;19962;-75
2022/09/09 03:02:38;;;;;;;;;;;21.80;61.40;;;;;;5049818;28;20340;-75
2022/09/09 03:05:04;;;;;;;;;;;21.80;62.20;;;;;;5052637;28;19913;-76
2022/09/09 03:07:30;;;;;;;;;;;21.80;61.20;;;;;;5053550;28;19942;-75
2022/09/09 03:09:55;;;;;;;;;;;21.80;61.30;;;;;;5053990;28;20380;-74
2022/09/09 03:12:21;;;;;;;;;;;21.80;61.20;;;;;;5054378;28;19916;-75
2022/09/09 03:14:47;;;;;;;;;;;21.80;61.30;;;;;;5051472;28;19913;-75
2022/09/09 03:17:12;;;;;;;;;;;21.70;61.20;;;;;;5053951;28;19920;-75
2022/09/09 03:19:38;;;;;;;;;;;21.80;62.00;;;;;;5054219;28;19920;-75
2022/09/09 03:22:04;;;;;;;;;;;21.80;61.10;;;;;;5051104;28;19940;-75
2022/09/09 03:24:29;;;;;;;;;;;21.70;61.00;;;;;;5053601;28;20396;-74
2022/09/09 03:26:55;;;;;;;;;;;21.70;61.80;;;;;;5051775;28;19913;-75
2022/09/09 03:29:21;;;;;;;;;;;21.70;61.10;;;;;;5053441;28;19923;-75
2022/09/09 03:31:47;;;;;;;;;;;21.70;61.10;;;;;;5049429;28;19920;-75
2022/09/09 03:34:13;;;;;;;;;;;21.70;61.20;;;;;;5033119;28;19909;-75
2022/09/09 03:36:38;;;;;;;;;;;21.70;61.20;;;;;;5040831;28;19912;-75
2022/09/09 03:39:04;;;;;;;;;;;21.70;61.20;;;;;;5047620;28;19924;-75
2022/09/09 03:41:30;;;;;;;;;;;21.70;61.10;;;;;;5040792;28;19920;-75
2022/09/09 03:43:55;;;;;;;;;;;21.70;61.00;;;;;;5048772;28;19962;-75
2022/09/09 03:46:21;;;;;;;;;;;21.70;60.90;;;;;;5052150;28;19948;-75
2022/09/09 03:48:47;;;;;;;;;;;21.70;60.90;;;;;;5050151;28;19961;-75
2022/09/09 03:51:12;;;;;;;;;;;21.70;60.90;;;;;;5052264;28;19943;-74
2022/09/09 03:53:38;;;;;;;;;;;21.70;60.90;;;;;;5050577;28;19919;-75
2022/09/09 03:56:03;;;;;;;;;;;21.70;60.90;;;;;;5053009;28;19917;-74
2022/09/09 03:58:29;;;;;;;;;;;21.70;60.90;;;;;;5050753;28;20293;-73
2022/09/09 04:00:55;;;;;;;;;;;21.70;60.80;;;;;;5051612;28;19916;-75
2022/09/09 04:03:20;;;;;;;;;;;21.70;60.70;;;;;;5040953;28;19968;-74
2022/09/09 04:05:48;;;;;;;;;;;21.70;60.60;;;;;;5050821;28;19948;-74
2022/09/09 04:08:13;;;;;;;;;;;21.70;60.60;;;;;;5052730;28;19912;-75
2022/09/09 04:10:39;;;;;;;;;;;21.70;60.80;;;;;;5048321;28;19936;-74
2022/09/09 04:13:04;;;;;;;;;;;21.60;60.70;;;;;;5049965;28;19913;-75
2022/09/09 04:15:30;;;;;;;;;;;21.60;60.70;;;;;;5045679;28;20364;-74
2022/09/09 04:17:55;;;;;;;;;;;21.60;60.80;;;;;;5049445;28;20004;-75
2022/09/09 04:20:22;;;;;;;;;;;21.60;60.70;;;;;;5048248;28;19924;-74
2022/09/09 04:22:47;;;;;;;;;;;21.60;60.70;;;;;;5049293;28;19919;-74
2022/09/09 04:25:13;;;;;;;;;;;21.60;60.80;;;;;;5048269;28;20050;-74
2022/09/09 04:27:38;;;;;;;;;;;21.60;60.70;;;;;;5052265;28;19913;-74
2022/09/09 04:30:04;;;;;;;;;;;21.60;60.70;;;;;;5051859;28;19913;-74
2022/09/09 04:32:29;;;;;;;;;;;21.60;60.60;;;;;;5051677;28;20368;-75
2022/09/09 04:34:55;;;;;;;;;;;21.60;60.70;;;;;;5042028;28;19913;-75
2022/09/09 04:37:20;;;;;;;;;;;21.60;60.60;;;;;;5045244;28;19917;-75
2022/09/09 04:39:46;;;;;;;;;;;21.60;60.60;;;;;;5050309;28;19924;-75
2022/09/09 04:42:11;;;;;;;;;;;21.60;60.50;;;;;;5050508;28;20003;-74
2022/09/09 04:44:37;;;;;;;;;;;21.60;60.50;;;;;;5049704;28;20387;-74
2022/09/09 04:47:02;;;;;;;;;;;21.60;60.50;;;;;;5043841;28;19913;-73
2022/09/09 04:49:28;;;;;;;;;;;21.60;60.40;;;;;;5045014;28;19913;-75
2022/09/09 04:51:53;;;;;;;;;;;21.60;60.50;;;;;;5038053;28;19913;-74
2022/09/09 04:54:18;;;;;;;;;;;21.60;60.60;;;;;;5051775;28;19955;-74
2022/09/09 04:56:44;;;;;;;;;;;21.60;60.50;;;;;;5030458;28;19917;-74
2022/09/09 04:59:09;;;;;;;;;;;21.60;60.50;;;;;;5052446;28;19917;-75
2022/09/09 05:01:35;;;;;;;;;;;21.60;60.50;;;;;;5051843;28;19913;-75
2022/09/09 05:04:01;;;;;;;;;;;21.60;60.50;;;;;;5032894;28;19931;-75
2022/09/09 05:06:27;;;;;;;;;;;21.50;60.50;;;;;;5045583;28;19920;-75
2022/09/09 05:08:52;;;;;;;;;;;21.50;60.50;;;;;;5036321;28;19913;-74
2022/09/09 05:11:19;;;;;;;;;;;21.50;60.60;;;;;;5038831;28;20443;-74
2022/09/09 05:13:45;;;;;;;;;;;21.50;60.40;;;;;;5033585;28;20000;-75
2022/09/09 05:16:11;;;;;;;;;;;21.50;60.30;;;;;;5040935;28;19921;-74
2022/09/09 05:18:37;;;;;;;;;;;21.50;60.30;;;;;;5048956;28;19920;-75
2022/09/09 05:21:02;;;;;;;;;;;21.50;60.30;;;;;;5042133;28;19917;-74
2022/09/09 05:23:28;;;;;;;;;;;21.50;60.50;;;;;;5041564;28;20437;-74
2022/09/09 05:25:55;;;;;;;;;;;21.50;60.50;;;;;;5046456;28;19920;-75
2022/09/09 05:28:20;;;;;;;;;;;21.50;60.30;;;;;;5050728;28;20380;-74
2022/09/09 05:30:46;;;;;;;;;;;21.50;60.10;;;;;;5047438;28;19921;-74
2022/09/09 05:33:11;;;;;;;;;;;21.50;61.10;;;;;;5050322;28;20368;-74
2022/09/09 05:35:38;;;;;;;;;;;21.50;60.20;;;;;;5050478;28;20388;-75
2022/09/09 05:38:04;;;;;;;;;;;21.50;60.10;;;;;;5048166;28;19966;-74
2022/09/09 05:40:29;;;;;;;;;;;21.60;60.20;;;;;;5043171;28;19924;-75
2022/09/09 05:42:55;;;;;;;;;;;21.60;60.10;;;;;;5049437;28;19913;-75
2022/09/09 05:45:20;;;;;;;;;;;21.50;60.20;;;;;;5049141;28;19917;-74
2022/09/09 05:47:52;;;;;;;;;;;21.50;60.30;;;;;;5050796;28;19925;-74
2022/09/09 05:50:17;;;;;;;;;;;21.50;60.40;;;;;;5050111;28;20364;-75
2022/09/09 05:52:44;;;;;;;;;;;21.50;60.30;;;;;;5049219;28;19931;-75
2022/09/09 05:55:09;;;;;;;;;;;21.50;60.30;;;;;;5052019;28;20003;-75
2022/09/09 05:57:35;;;;;;;;;;;21.50;60.30;;;;;;5053688;28;20347;-75
2022/09/09 06:00:00;;;;;;;;;;;21.50;60.40;;;;;;5054594;28;19927;-75
2022/09/09 06:02:26;;;;;;;;;;;21.50;60.40;;;;;;5059418;28;19990;-75
2022/09/09 06:04:51;;;;;;;;;;;21.40;60.40;;;;;;5072820;28;19944;-74
2022/09/09 06:07:17;;;;;;;;;;;21.40;60.40;;;;;;5072850;28;19913;-74
2022/09/09 06:09:42;;;;;;;;;;;21.50;60.60;;;;;;5074523;28;19916;-73
2022/09/09 06:12:08;;;;;;;;;;;21.40;60.40;;;;;;5067526;28;19925;-73
2022/09/09 06:14:34;;;;;;;;;;;21.50;60.60;;;;;;5054475;28;19988;-73
2022/09/09 06:16:59;;;;;;;;;;;21.50;60.60;;;;;;5071386;28;20375;-74
2022/09/09 06:19:26;;;;;;;;;;;21.50;60.60;;;;;;5056295;28;19917;-75
2022/09/09 06:21:51;;;;;;;;;;;21.40;60.60;;;;;;5073162;28;19959;-74
2022/09/09 06:24:19;;;;;;;;;;;21.40;60.60;;;;;;5036706;28;19978;-75
2022/09/09 06:26:45;;;;;;;;;;;21.40;60.70;;;;;;5068030;28;19920;-75
2022/09/09 06:29:10;;;;;;;;;;;21.40;60.70;;;;;;5070706;28;19954;-75
2022/09/09 06:31:36;;;;;;;;;;;21.40;61.00;;;;;;5055304;28;20299;-74
2022/09/09 06:34:03;;;;;;;;;;;21.40;61.00;;;;;;5056762;28;19952;-74
2022/09/09 06:36:29;;;;;;;;;;;21.40;61.10;;;;;;5053381;28;19916;-74
2022/09/09 06:38:55;;;;;;;;;;;21.40;61.10;;;;;;5045769;28;19938;-75
2022/09/09 06:41:21;;;;;;;;;;;21.40;61.10;;;;;;5039746;28;20562;-74
2022/09/09 06:43:46;;;;;;;;;;;21.40;61.20;;;;;;5055225;28;20400;-74
2022/09/09 06:46:12;;;;;;;;;;;21.30;61.30;;;;;;5071926;28;19913;-75
2022/09/09 06:48:47;;;;;;;;;;;21.30;61.40;;;;;;5039624;28;19948;-75
2022/09/09 06:51:13;;;;;;;;;;;21.30;61.40;;;;;;5055313;28;19912;-75
2022/09/09 06:53:39;;;;;;;;;;;21.30;61.40;;;;;;5073451;28;20368;-74
2022/09/09 06:56:11;;;;;;;;;;;21.30;61.50;;;;;;5038209;28;19924;-75
2022/09/09 06:58:43;;;;;;;;;;;21.30;61.50;;;;;;5070811;28;19916;-74
2022/09/09 07:01:09;;;;;;;;;;;21.30;61.50;;;;;;5070943;28;20407;-75
2022/09/09 07:03:35;;;;;;;;;;;21.40;61.50;;;;;;5054188;28;19959;-75
2022/09/09 07:06:00;;;;;;;;;;;21.30;61.50;;;;;;5064406;28;19963;-74
2022/09/09 07:08:26;;;;;;;;;;;21.40;61.50;;;;;;5049885;28;19921;-75
2022/09/09 07:10:55;;;;;;;;;;;21.30;61.50;;;;;;5073804;28;19919;-75
2022/09/09 07:13:25;;;;;;;;;;;21.30;61.80;;;;;;5072758;28;20410;-74
2022/09/09 07:15:51;;;;;;;;;;;21.30;61.80;;;;;;5049459;28;20326;-74
2022/09/09 07:18:16;;;;;;;;;;;21.30;62.00;;;;;;5048166;28;19932;-74
2022/09/09 07:20:41;;;;;;;;;;;21.30;61.90;;;;;;5044534;28;19916;-74
2022/09/09 07:23:07;;;;;;;;;;;21.30;61.90;;;;;;5047378;28;19912;-75
2022/09/09 07:25:32;;;;;;;;;;;21.30;62.20;;;;;;5073358;28;19912;-75
2022/09/09 07:27:58;;;;;;;;;;;21.30;62.00;;;;;;5036255;28;19913;-75
2022/09/09 07:30:23;;;;;;;;;;;21.30;62.10;;;;;;5042242;28;19954;-74
2022/09/09 07:32:50;;;;;;;;;;;21.30;62.10;;;;;;5063244;28;20425;-75
2022/09/09 07:35:16;;;;;;;;;;;21.30;62.00;;;;;;5068325;28;19917;-74
2022/09/09 07:37:41;;;;;;;;;;;21.40;62.10;;;;;;5069918;28;19923;-75
2022/09/09 07:40:07;;;;;;;;;;;21.40;62.10;;;;;;5064579;28;19967;-75
2022/09/09 07:42:33;;;;;;;;;;;21.40;62.10;;;;;;5042877;28;20380;-74
2022/09/09 07:44:59;;;;;;;;;;;21.40;62.10;;;;;;5064893;28;20276;-75
2022/09/09 07:47:24;;;;;;;;;;;21.40;62.10;;;;;;5066253;28;19948;-74
2022/09/09 07:49:50;;;;;;;;;;;21.40;62.00;;;;;;5070708;28;20355;-74
2022/09/09 07:52:16;;;;;;;;;;;21.40;62.00;;;;;;5053083;28;19916;-74
2022/09/09 07:54:41;;;;;;;;;;;21.40;62.10;;;;;;5044390;28;19917;-74
2022/09/09 07:57:07;;;;;;;;;;;21.40;62.10;;;;;;5059369;28;19912;-74
2022/09/09 07:59:33;;;;;;;;;;;21.40;62.30;;;;;;5071662;28;20410;-75
2022/09/09 08:01:58;;;;;;;;;;;21.40;62.40;;;;;;5046214;28;20012;-74
2022/09/09 08:04:25;;;;;;;;;;;21.40;62.60;;;;;;5050123;28;20458;-75
2022/09/09 08:06:54;;;;;;;;;;;21.40;62.50;;;;;;5053657;28;19919;-75
2022/09/09 08:09:20;;;;;;;;;;;21.40;63.30;;;;;;5045575;28;20007;-75
2022/09/09 08:11:46;;;;;;;;;;;21.40;62.80;;;;;;5065504;28;20013;-73
2022/09/09 08:14:12;;;;;;;;;;;21.40;62.80;;;;;;5055401;28;19918;-75
2022/09/09 08:16:38;;;;;;;;;;;21.40;62.80;;;;;;5037171;28;19908;-73
2022/09/09 08:19:04;;;;;;;;;;;21.50;62.90;;;;;;5052767;28;19939;-74
2022/09/09 08:21:30;;;;;;;;;;;21.50;62.80;;;;;;5033904;28;19917;-74
2022/09/09 08:23:56;;;;;;;;;;;21.50;62.70;;;;;;5043867;28;19999;-74
2022/09/09 08:26:23;;;;;;;;;;;21.50;62.80;;;;;;5053139;28;20346;-75
2022/09/09 08:28:51;;;;;;;;;;;21.50;62.90;;;;;;5026277;28;19920;-74
2022/09/09 08:31:17;;;;;;;;;;;21.50;63.00;;;;;;5045603;28;20496;-75
2022/09/09 08:33:45;;;;;;;;;;;21.50;63.20;;;;;;5025085;28;19920;-75
2022/09/09 08:36:11;;;;;;;;;;;21.20;64.30;;;;;;5044853;28;20339;-75
2022/09/09 08:38:37;;;;;;;;;;;20.80;66.10;;;;;;5043853;28;20008;-73
2022/09/09 08:41:17;;;;;;;;;;;20.40;67.30;;;;;;5066263;28;19931;-77
2022/09/09 08:43:43;;;;;;;;;;;20.20;68.90;;;;;;5024124;28;20047;-77
2022/09/09 08:46:18;;;;;;;;;;;20.00;69.70;;;;;;5045120;28;19920;-76
2022/09/09 08:49:01;;;;;;;;;;;20.00;69.40;;;;;;5048279;28;19974;-76
2022/09/09 08:51:27;;;;;;;;;;;20.00;69.30;;;;;;5052835;28;20015;-76
2022/09/09 08:53:53;;;;;;;;;;;20.00;69.30;;;;;;5050149;28;19924;-75
2022/09/09 08:56:20;;;;;;;;;;;20.00;69.40;;;;;;5062055;28;20046;-76
2022/09/09 08:58:48;;;;;;;;;;;20.10;69.40;;;;;;5045204;28;19956;-76
2022/09/09 09:01:17;;;;;;;;;;;20.20;69.10;;;;;;5046616;28;20012;-76
2022/09/09 09:03:50;;;;;;;;;;;20.20;69.00;;;;;;5063326;28;19924;-76
2022/09/09 09:06:30;;;;;;;;;;;20.20;68.90;;;;;;5063244;28;20365;-74
2022/09/09 09:09:06;;;;;;;;;;;20.40;68.70;;;;;;5047968;28;19916;-77
2022/09/09 09:11:39;;;;;;;;;;;20.40;69.00;;;;;;5046298;28;19921;-75
2022/09/09 09:14:13;;;;;;;;;;;20.40;68.90;;;;;;5033540;28;19912;-75
2022/09/09 09:16:43;;;;;;;;;;;20.50;68.70;;;;;;5052295;28;20011;-75
2022/09/09 09:19:10;;;;;;;;;;;20.60;68.50;;;;;;5051520;28;19916;-75
2022/09/09 09:21:50;;;;;;;;;;;20.80;68.60;;;;;;5054162;28;19920;-75
2022/09/09 09:24:19;;;;;;;;;;;20.70;68.10;;;;;;5055184;28;19913;-76
2022/09/09 09:26:45;;;;;;;;;;;20.70;67.60;;;;;;5051277;28;19974;-75
2022/09/09 09:29:12;;;;;;;;;;;20.80;67.40;;;;;;5071400;28;19926;-75
2022/09/09 09:31:37;;;;;;;;;;;20.70;67.20;;;;;;5068291;28;20400;-75
2022/09/09 09:34:03;;;;;;;;;;;20.80;67.30;;;;;;5046681;28;19920;-75
2022/09/09 09:36:39;;;;;;;;;;;20.80;67.30;;;;;;5046506;28;20295;-76
2022/09/09 09:39:05;;;;;;;;;;;20.80;67.90;;;;;;5068617;28;19919;-75
2022/09/09 09:41:35;;;;;;;;;;;20.70;68.00;;;;;;5047136;28;19958;-76
2022/09/09 09:44:01;;;;;;;;;;;20.70;68.00;;;;;;5049598;28;19912;-74
2022/09/09 09:46:27;;;;;;;;;;;20.70;68.20;;;;;;5052834;28;19921;-74
2022/09/09 09:48:56;;;;;;;;;;;20.60;68.60;;;;;;5053354;28;19921;-75
2022/09/09 09:51:22;;;;;;;;;;;20.50;68.80;;;;;;5050725;28;20436;-75
2022/09/09 09:53:49;;;;;;;;;;;20.50;69.20;;;;;;5049235;28;19916;-76
2022/09/09 09:56:15;;;;;;;;;;;20.40;69.20;;;;;;5069067;28;19912;-75
2022/09/09 09:58:44;;;;;;;;;;;20.50;69.20;;;;;;5041997;28;19958;-75
2022/09/09 10:01:29;;;;;;;;;;;20.60;68.60;;;;;;5069233;28;19971;-75
2022/09/09 10:03:57;;;;;;;;;;;20.70;68.70;;;;;;5051694;28;19920;-75
2022/09/09 10:06:30;;;;;;;;;;;20.70;68.10;;;;;;5051937;28;20379;-75
2022/09/09 10:08:55;;;;;;;;;;;20.80;68.40;;;;;;5065058;28;20478;-75
2022/09/09 10:11:27;;;;;;;;;;;20.70;68.50;;;;;;5053470;28;20004;-74
2022/09/09 10:14:02;;;;;;;;;;;20.80;68.30;;;;;;5006597;28;20080;-75
2022/09/09 10:16:48;;;;;;;;;;;21.00;68.10;;;;;;4992477;28;20100;-75
2022/09/09 10:19:15;;;;;;;;;;;21.00;68.10;;;;;;5011283;28;20420;-75
2022/09/09 10:21:51;;;;;;;;;;;21.10;67.60;;;;;;4989986;28;19968;-75
2022/09/09 10:24:35;;;;;;;;;;;21.10;67.60;;;;;;5005453;28;19917;-75
2022/09/09 10:27:03;;;;;;;;;;;21.20;67.70;;;;;;5013209;28;19914;-76
2022/09/09 10:29:34;;;;;;;;;;;21.30;67.80;;;;;;5008368;28;19925;-74
2022/09/09 10:32:09;;;;;;;;;;;21.30;67.30;;;;;;5007139;28;19914;-74
2022/09/09 10:34:35;;;;;;;;;;;21.40;66.80;;;;;;5009758;28;20005;-75
2022/09/09 10:37:00;;;;;;;;;;;21.50;65.50;;;;;;5010276;28;20504;-75
2022/09/09 10:39:35;;;;;;;;;;;21.40;65.80;;;;;;5006041;28;19926;-75
2022/09/09 10:42:04;;;;;;;;;;;21.30;65.00;;;;;;5008838;28;20293;-75
2022/09/09 10:44:38;;;;;;;;;;;21.30;65.40;;;;;;5013310;28;19921;-75
2022/09/09 10:47:19;;;;;;;;;;;21.40;65.40;;;;;;5010988;28;19921;-75
2022/09/09 10:49:50;;;;;;;;;;;21.40;65.20;;;;;;5012652;28;19957;-75
2022/09/09 10:52:22;;;;;;;;;;;21.40;64.90;;;;;;5015069;28;19917;-74
2022/09/09 10:55:06;;;;;;;;;;;21.30;65.20;;;;;;5008644;28;19967;-75
2022/09/09 10:57:36;;;;;;;;;;;21.40;64.40;;;;;;5011470;28;19922;-75
2022/09/09 11:00:04;;;;;;;;;;;21.30;64.80;;;;;;5008216;28;20336;-75
2022/09/09 11:02:30;;;;;;;;;;;21.30;65.10;;;;;;5012591;28;19976;-74
2022/09/09 11:04:58;;;;;;;;;;;21.30;65.20;;;;;;5010812;28;19928;-75
2022/09/09 11:07:28;;;;;;;;;;;21.30;64.70;;;;;;5015045;28;19913;-76
2022/09/09 11:09:55;;;;;;;;;;;21.20;65.00;;;;;;5009438;28;19944;-74
2022/09/09 11:12:21;;;;;;;;;;;21.30;66.10;;;;;;4993304;28;20411;-75
2022/09/09 11:14:48;;;;;;;;;;;21.30;66.10;;;;;;5009888;28;19921;-74
2022/09/09 11:17:18;;;;;;;;;;;21.40;66.60;;;;;;5004077;28;20328;-74
2022/09/09 11:19:43;;;;;;;;;;;21.50;66.20;;;;;;5013561;28;20365;-74
2022/09/09 11:22:18;;;;;;;;;;;21.60;66.00;;;;;;4995975;28;20000;-76
2022/09/09 11:24:45;;;;;;;;;;;21.70;66.00;;;;;;5015187;28;20293;-75
2022/09/09 11:27:13;;;;;;;;;;;21.60;65.70;;;;;;4997720;28;19910;-76
2022/09/09 11:29:44;;;;;;;;;;;21.70;66.10;;;;;;5014186;28;19909;-76
2022/09/09 11:32:21;;;;;;;;;;;21.60;65.90;;;;;;4995813;28;19921;-75
2022/09/09 11:34:59;;;;;;;;;;;21.70;65.90;;;;;;5009462;28;19918;-75
2022/09/09 11:37:37;;;;;;;;;;;21.70;65.90;;;;;;5002589;28;19928;-75
2022/09/09 11:40:14;;;;;;;;;;;21.70;66.60;;;;;;4985447;28;19917;-75
2022/09/09 11:42:39;;;;;;;;;;;21.60;65.90;;;;;;5006069;28;20008;-76
2022/09/09 11:45:15;;;;;;;;;;;21.60;65.70;;;;;;5003034;28;19964;-74
2022/09/09 11:47:43;;;;;;;;;;;21.60;65.80;;;;;;5002837;28;19917;-75
2022/09/09 11:50:09;;;;;;;;;;;21.40;66.10;;;;;;5004375;28;20343;-75
2022/09/09 11:52:38;;;;;;;;;;;21.40;66.90;;;;;;5004657;28;20361;-74
2022/09/09 11:55:11;;;;;;;;;;;21.40;66.90;;;;;;5004338;28;20267;-75
2022/09/09 11:57:37;;;;;;;;;;;21.40;67.30;;;;;;5002988;28;20293;-75
2022/09/09 12:00:03;;;;;;;;;;;21.50;67.70;;;;;;5006426;28;19929;-75
2022/09/09 12:02:32;;;;;;;;;;;21.50;66.80;;;;;;4989246;28;19976;-75
2022/09/09 12:05:03;;;;;;;;;;;21.60;66.60;;;;;;5003369;28;19918;-76
2022/09/09 12:07:29;;;;;;;;;;;21.60;66.00;;;;;;4987666;28;20321;-75
2022/09/09 12:10:03;;;;;;;;;;;21.60;65.90;;;;;;4999930;28;19952;-75
2022/09/09 12:12:32;;;;;;;;;;;21.50;65.60;;;;;;5001363;28;19920;-76
2022/09/09 12:14:59;;;;;;;;;;;21.50;65.80;;;;;;4985808;28;19921;-74
2022/09/09 12:17:25;;;;;;;;;;;21.60;65.20;;;;;;5005971;28;19919;-75
2022/09/09 12:20:05;;;;;;;;;;;21.50;65.20;;;;;;5007690;28;20401;-75
2022/09/09 12:22:36;;;;;;;;;;;21.50;65.10;;;;;;4990041;28;21285;-75
2022/09/09 12:25:09;;;;;;;;;;;21.50;64.90;;;;;;4986391;28;19999;-75
2022/09/09 12:27:36;;;;;;;;;;;21.40;65.20;;;;;;5004795;28;19914;-75
2022/09/09 12:30:14;;;;;;;;;;;21.40;65.70;;;;;;5005754;28;20393;-75
2022/09/09 12:32:40;;;;;;;;;;;21.40;65.80;;;;;;5009322;28;19913;-74
2022/09/09 12:35:13;;;;;;;;;;;21.50;66.30;;;;;;4986333;28;20495;-76
2022/09/09 12:37:44;;;;;;;;;;;21.60;66.40;;;;;;5006081;28;19913;-74
2022/09/09 12:40:20;;;;;;;;;;;21.70;65.80;;;;;;5004572;28;20379;-76
2022/09/09 12:42:45;;;;;;;;;;;21.60;65.70;;;;;;5002338;28;20378;-75
2022/09/09 12:45:17;;;;;;;;;;;21.60;66.00;;;;;;4993585;28;19931;-75
2022/09/09 12:47:45;;;;;;;;;;;21.60;65.70;;;;;;5005420;28;19968;-76
2022/09/09 12:50:19;;;;;;;;;;;21.60;66.00;;;;;;5003359;28;19932;-75
2022/09/09 12:52:45;;;;;;;;;;;21.50;65.60;;;;;;5005255;28;19925;-76
2022/09/09 12:55:21;;;;;;;;;;;21.40;65.80;;;;;;5003988;28;20008;-76
2022/09/09 12:57:49;;;;;;;;;;;21.30;66.50;;;;;;4979700;28;19918;-75
2022/09/09 13:00:20;;;;;;;;;;;21.30;67.30;;;;;;5006162;28;19941;-77
2022/09/09 13:02:50;;;;;;;;;;;21.30;67.80;;;;;;4983364;28;19928;-75
2022/09/09 13:05:16;;;;;;;;;;;21.10;67.60;;;;;;5004638;28;19913;-76
2022/09/09 13:07:43;;;;;;;;;;;21.10;68.30;;;;;;5006389;28;19918;-76
2022/09/09 13:10:10;;;;;;;;;;;21.20;68.60;;;;;;4992025;28;19922;-76
2022/09/09 13:12:36;;;;;;;;;;;21.30;68.20;;;;;;5004467;28;19918;-76
2022/09/09 13:15:02;;;;;;;;;;;21.40;67.90;;;;;;4991068;28;19922;-75
2022/09/09 13:17:31;;;;;;;;;;;21.50;68.00;;;;;;4987834;28;20352;-76
2022/09/09 13:19:56;;;;;;;;;;;21.50;67.70;;;;;;5002545;28;20340;-75
2022/09/09 13:22:33;;;;;;;;;;;21.60;67.60;;;;;;4984101;28;19960;-76
2022/09/09 13:25:11;;;;;;;;;;;21.60;67.90;;;;;;4988645;28;19922;-76
2022/09/09 13:27:41;;;;;;;;;;;21.70;67.90;;;;;;5003719;28;19918;-74
2022/09/09 13:30:23;;;;;;;;;;;21.70;67.90;;;;;;4988919;28;20012;-74
2022/09/09 13:33:04;;;;;;;;;;;21.80;67.70;;;;;;4990856;28;19918;-76
2022/09/09 13:35:29;;;;;;;;;;;21.90;67.70;;;;;;4991233;28;19914;-75
2022/09/09 13:37:55;;;;;;;;;;;21.90;67.70;;;;;;5002981;28;20034;-76
2022/09/09 13:40:21;;;;;;;;;;;22.00;68.10;;;;;;5000981;28;19926;-76
2022/09/09 13:42:46;;;;;;;;;;;21.90;68.30;;;;;;4983760;28;19918;-75
2022/09/09 13:45:16;;;;;;;;;;;21.90;68.40;;;;;;5004828;28;19968;-76
2022/09/09 13:47:41;;;;;;;;;;;21.90;68.40;;;;;;5004708;28;19918;-76
2022/09/09 13:50:20;;;;;;;;;;;22.00;68.70;;;;;;4988739;28;19964;-76
2022/09/09 13:52:47;;;;;;;;;;;22.00;68.50;;;;;;4989232;28;19914;-77
2022/09/09 13:55:12;;;;;;;;;;;22.00;68.50;;;;;;4988981;28;19932;-76
2022/09/09 13:57:38;;;;;;;;;;;22.00;68.50;;;;;;5007081;28;20353;-76
2022/09/09 14:00:04;;;;;;;;;;;22.10;68.60;;;;;;4989284;28;20448;-77
2022/09/09 14:02:30;;;;;;;;;;;22.00;68.80;;;;;;5006246;28;19985;-76
2022/09/09 14:04:56;;;;;;;;;;;21.90;68.70;;;;;;4985748;28;20423;-76
2022/09/09 14:07:21;;;;;;;;;;;22.00;68.90;;;;;;5005927;28;19918;-77
2022/09/09 14:09:49;;;;;;;;;;;22.00;69.00;;;;;;4993081;28;19914;-76
2022/09/09 14:12:15;;;;;;;;;;;22.00;68.80;;;;;;4990736;28;19918;-76
2022/09/09 14:14:41;;;;;;;;;;;22.00;68.50;;;;;;4986439;28;20713;-76
2022/09/09 14:17:07;;;;;;;;;;;22.00;68.50;;;;;;4999449;28;19964;-76
2022/09/09 14:19:32;;;;;;;;;;;22.00;68.50;;;;;;4988347;28;19926;-76
2022/09/09 14:21:58;;;;;;;;;;;22.00;68.80;;;;;;4992694;28;19914;-76
2022/09/09 14:24:24;;;;;;;;;;;21.90;69.00;;;;;;5005264;28;19962;-76